Terminal Aerodrome Forecast
Issued by NWS

Home | Current Version | Previous Version | Text Only | Print | Product List | Glossary On
Versions: 1 2 3 4 5 6 7 8 9 10 11 12 13 14 15 16
000
FTUS46 KSTO 250536
TAFRBL
TAF
KRBL 250536Z 2506/2606 33005KT P6SM OVC200
      TEMPO 2508/2512 -RA OVC100
     FM252100 15010G15KT P6SM BKN250=

USA.gov is the U.S. government's official web portal to all federal, state and local government web resources and services.